createdAt,value
2019-02-10T00:00:37.738Z,2.10
2019-02-10T00:01:37.555Z,2.50
2019-02-10T00:02:37.563Z,2.30
2019-02-10T00:03:37.538Z,2.10
2019-02-10T00:04:37.546Z,2.10
2019-02-10T00:05:37.517Z,2.40
2019-02-10T00:06:37.568Z,2.30
2019-02-10T00:07:37.495Z,2.30
2019-02-10T00:08:37.515Z,2.40
2019-02-10T00:09:37.475Z,2.30
2019-02-10T00:10:37.464Z,2.10
2019-02-10T00:11:37.483Z,2.00
2019-02-10T00:12:37.723Z,2.20
2019-02-10T00:13:37.440Z,2.20
2019-02-10T00:14:37.436Z,2.10
2019-02-10T00:15:37.409Z,2.10
2019-02-10T00:16:37.463Z,2.20
2019-02-10T00:17:37.384Z,2.20
2019-02-10T00:18:37.385Z,2.30
2019-02-10T00:19:37.362Z,2.30
2019-02-10T00:20:37.354Z,1.80
2019-02-10T00:21:37.361Z,2.30
2019-02-10T00:22:37.397Z,2.40
2019-02-10T00:23:37.325Z,2.30
2019-02-10T00:24:37.432Z,1.70
2019-02-10T00:25:37.327Z,2.00
2019-02-10T00:26:37.311Z,2.20
2019-02-10T00:27:37.377Z,2.50
2019-02-10T00:28:37.278Z,2.10
2019-02-10T00:29:37.256Z,2.30
2019-02-10T00:30:37.246Z,2.50
2019-02-10T00:31:37.241Z,2.00
2019-02-10T00:32:37.316Z,2.40
2019-02-10T00:33:37.215Z,2.30
2019-02-10T00:34:37.282Z,2.10
2019-02-10T00:35:37.194Z,2.60
2019-02-10T00:36:37.187Z,2.10
2019-02-10T00:37:37.181Z,2.10
2019-02-10T00:38:37.185Z,2.10
2019-02-10T00:39:37.161Z,2.20
2019-02-10T00:40:37.169Z,2.30
2019-02-10T00:41:37.129Z,2.40
2019-02-10T00:42:37.118Z,2.10
2019-02-10T00:43:37.150Z,2.50
2019-02-10T00:44:37.103Z,2.40
2019-02-10T00:45:37.097Z,1.90
2019-02-10T00:46:37.179Z,2.20
2019-02-10T00:47:37.105Z,2.60
2019-02-10T00:48:37.055Z,2.20
2019-02-10T00:49:37.068Z,2.50
2019-02-10T00:50:37.067Z,2.30
2019-02-10T00:51:37.020Z,1.90
2019-02-10T00:52:37.009Z,2.30
2019-02-10T00:53:37.018Z,2.50
2019-02-10T00:54:37.025Z,2.10
2019-02-10T00:55:37.026Z,2.10
2019-02-10T00:56:36.982Z,2.20
2019-02-10T00:57:36.979Z,2.90
2019-02-10T00:58:36.952Z,2.30
2019-02-10T00:59:37.040Z,2.20
2019-02-10T01:00:36.936Z,2.40
2019-02-10T01:01:36.917Z,2.50
2019-02-10T01:02:36.911Z,2.50
2019-02-10T01:03:36.890Z,2.00
2019-02-10T01:04:36.891Z,2.20
2019-02-10T01:05:37.011Z,2.30
2019-02-10T01:06:41.443Z,2.40
2019-02-10T01:07:36.852Z,2.50
2019-02-10T01:08:36.856Z,2.20
2019-02-10T01:09:36.830Z,2.30
2019-02-10T01:10:36.851Z,2.40
2019-02-10T01:11:36.809Z,2.30
2019-02-10T01:12:36.795Z,2.70
2019-02-10T01:13:36.871Z,2.70
2019-02-10T01:14:36.829Z,2.40
2019-02-10T01:15:36.829Z,2.20
2019-02-10T01:16:36.768Z,2.10
2019-02-10T01:17:36.758Z,2.20
2019-02-10T01:18:36.733Z,2.20
2019-02-10T01:19:36.728Z,2.70
2019-02-10T01:20:36.764Z,2.30
2019-02-10T01:21:36.739Z,1.80
2019-02-10T01:22:36.704Z,2.00
2019-02-10T01:23:36.701Z,2.70
2019-02-10T01:24:36.668Z,2.00
2019-02-10T01:25:36.667Z,2.40
2019-02-10T01:26:36.903Z,2.20
2019-02-10T01:27:36.635Z,2.40
2019-02-10T01:28:36.843Z,2.40
2019-02-10T01:29:36.667Z,2.80
2019-02-10T01:30:36.608Z,2.80
2019-02-10T01:31:36.973Z,2.70
2019-02-10T01:32:37.604Z,2.80
2019-02-10T01:33:36.598Z,2.60
2019-02-10T01:34:36.561Z,2.10
2019-02-10T01:35:36.592Z,2.70
2019-02-10T01:36:36.899Z,2.10
2019-02-10T01:37:36.741Z,2.90
2019-02-10T01:38:36.523Z,2.30
2019-02-10T01:39:36.577Z,2.90
2019-02-10T01:40:36.603Z,2.30
2019-02-10T01:41:36.526Z,2.60
2019-02-10T01:42:36.485Z,2.60
2019-02-10T01:43:36.541Z,2.30
2019-02-10T01:44:36.474Z,2.50
2019-02-10T01:45:36.457Z,2.10
2019-02-10T01:46:36.450Z,2.20
2019-02-10T01:47:36.453Z,2.50
2019-02-10T01:48:36.416Z,2.50
2019-02-10T01:49:36.487Z,2.50
2019-02-10T01:50:36.392Z,2.50
2019-02-10T01:51:36.385Z,2.40
2019-02-10T01:52:36.399Z,2.30
2019-02-10T01:53:36.357Z,2.50
2019-02-10T01:54:36.367Z,2.30
2019-02-10T01:55:36.344Z,2.30
2019-02-10T01:56:36.356Z,2.40
2019-02-10T01:57:36.415Z,2.50
2019-02-10T01:58:36.338Z,2.40
2019-02-10T01:59:36.296Z,2.20
2019-02-10T02:00:36.291Z,2.30
2019-02-10T02:01:36.273Z,2.00
2019-02-10T02:02:36.307Z,2.20
2019-02-10T02:03:36.253Z,2.50
2019-02-10T02:04:36.260Z,2.40
2019-02-10T02:05:36.238Z,2.00
2019-02-10T02:06:36.322Z,2.10
2019-02-10T02:07:36.250Z,2.30
2019-02-10T02:08:36.212Z,2.40
2019-02-10T02:09:36.219Z,2.40
2019-02-10T02:10:36.178Z,2.00
2019-02-10T02:11:36.177Z,1.90
2019-02-10T02:12:44.878Z,2.10
2019-02-10T02:13:36.537Z,2.50
2019-02-10T02:14:36.144Z,2.30
2019-02-10T02:15:36.124Z,2.40
2019-02-10T02:16:36.118Z,2.40
2019-02-10T02:17:36.145Z,1.90
2019-02-10T02:18:36.098Z,2.40
2019-02-10T02:19:36.106Z,2.20
2019-02-10T02:20:36.348Z,2.20
2019-02-10T02:21:36.064Z,2.10
2019-02-10T02:22:36.105Z,2.10
2019-02-10T02:23:36.044Z,2.00
2019-02-10T02:24:36.053Z,2.40
2019-02-10T02:25:36.025Z,2.00
2019-02-10T02:26:36.130Z,2.30
2019-02-10T02:27:36.001Z,2.30
2019-02-10T02:28:36.064Z,2.20
2019-02-10T02:29:36.005Z,2.10
2019-02-10T02:30:35.983Z,1.80
2019-02-10T02:31:35.961Z,2.30
2019-02-10T02:32:36.035Z,1.80
2019-02-10T02:33:35.966Z,2.00
2019-02-10T02:34:35.934Z,2.10
2019-02-10T02:35:35.945Z,2.10
2019-02-10T02:36:35.915Z,1.80
2019-02-10T02:37:35.893Z,2.30
2019-02-10T02:38:35.936Z,2.40
2019-02-10T02:39:35.876Z,2.40
2019-02-10T02:40:35.901Z,1.90
2019-02-10T02:41:35.847Z,2.30
2019-02-10T02:42:35.852Z,2.30
2019-02-10T02:43:35.901Z,2.30
2019-02-10T02:44:35.832Z,2.20
2019-02-10T02:45:36.080Z,2.00
2019-02-10T02:46:35.798Z,2.40
2019-02-10T02:47:35.824Z,2.20
2019-02-10T02:48:35.814Z,2.80
2019-02-10T02:49:35.789Z,2.10
2019-02-10T02:50:35.764Z,2.20
2019-02-10T02:51:35.756Z,2.20
2019-02-10T02:52:35.874Z,2.40
2019-02-10T02:53:35.731Z,2.20
2019-02-10T02:54:35.739Z,2.50
2019-02-10T02:55:35.831Z,2.40
2019-02-10T02:56:35.684Z,2.90
2019-02-10T02:57:35.707Z,2.20
2019-02-10T02:58:35.668Z,2.30
2019-02-10T02:59:35.697Z,2.20
2019-02-10T03:00:35.715Z,2.00
2019-02-10T03:01:35.635Z,1.70
2019-02-10T03:02:35.624Z,2.70
2019-02-10T03:03:35.617Z,2.20
2019-02-10T03:04:35.866Z,2.00
2019-02-10T03:05:35.654Z,1.90
2019-02-10T03:06:35.583Z,2.40
2019-02-10T03:07:35.608Z,1.80
2019-02-10T03:08:35.574Z,2.20
2019-02-10T03:09:35.580Z,2.50
2019-02-10T03:10:35.536Z,1.90
2019-02-10T03:11:35.711Z,2.20
2019-02-10T03:12:35.525Z,2.10
2019-02-10T03:13:35.505Z,2.30
2019-02-10T03:14:35.519Z,2.20
2019-02-10T03:15:35.544Z,2.40
2019-02-10T03:16:35.571Z,2.30
2019-02-10T03:17:35.494Z,2.10
2019-02-10T03:18:35.450Z,2.30
2019-02-10T03:19:35.617Z,2.70
2019-02-10T03:20:35.434Z,2.30
2019-02-10T03:21:35.439Z,2.30
2019-02-10T03:22:35.410Z,2.30
2019-02-10T03:23:35.425Z,2.40
2019-02-10T03:24:35.436Z,2.20
2019-02-10T03:25:35.390Z,2.10
2019-02-10T03:26:35.364Z,2.20
2019-02-10T03:27:35.359Z,2.30
2019-02-10T03:28:35.398Z,2.60
2019-02-10T03:29:35.353Z,2.40
2019-02-10T03:30:35.470Z,2.00
2019-02-10T03:31:35.345Z,2.20
2019-02-10T03:32:35.593Z,2.40
2019-02-10T03:33:35.293Z,2.50
2019-02-10T03:34:35.296Z,2.30
2019-02-10T03:35:35.395Z,2.40
2019-02-10T03:36:35.272Z,2.10
2019-02-10T03:37:35.260Z,2.40
2019-02-10T03:38:35.255Z,2.30
2019-02-10T03:39:35.319Z,2.30
2019-02-10T03:40:35.314Z,2.40
2019-02-10T03:41:35.220Z,2.50
2019-02-10T03:42:35.197Z,2.60
2019-02-10T03:43:35.191Z,2.20
2019-02-10T03:44:35.247Z,2.30
2019-02-10T03:45:35.380Z,2.10
2019-02-10T03:46:35.176Z,1.90
2019-02-10T03:47:35.146Z,1.90
2019-02-10T03:48:35.151Z,2.10
2019-02-10T03:49:35.121Z,1.90
2019-02-10T03:50:35.159Z,2.40
2019-02-10T03:51:35.105Z,2.10
2019-02-10T03:52:35.110Z,2.30
2019-02-10T03:53:35.089Z,2.30
2019-02-10T03:54:35.122Z,2.00
2019-02-10T03:55:35.072Z,2.20
2019-02-10T03:56:35.226Z,2.00
2019-02-10T03:57:35.039Z,2.30
2019-02-10T03:58:35.032Z,2.40
2019-02-10T03:59:35.048Z,2.20
2019-02-10T04:00:35.018Z,2.40
2019-02-10T04:01:35.040Z,2.20
2019-02-10T04:02:35.050Z,2.00
2019-02-10T04:03:34.970Z,1.80
2019-02-10T04:04:34.969Z,1.90
2019-02-10T04:05:34.953Z,2.00
2019-02-10T04:06:34.979Z,2.20
2019-02-10T04:07:36.431Z,2.50
2019-02-10T04:08:34.945Z,1.80
2019-02-10T04:09:34.907Z,2.20
2019-02-10T04:10:34.973Z,1.90
2019-02-10T04:11:34.962Z,2.00
2019-02-10T04:12:34.883Z,2.30
2019-02-10T04:13:34.883Z,2.20
2019-02-10T04:14:34.863Z,2.20
2019-02-10T04:15:34.843Z,2.40
2019-02-10T04:16:34.881Z,1.90
2019-02-10T04:17:34.847Z,1.80
2019-02-10T04:18:34.927Z,1.80
2019-02-10T04:19:34.798Z,2.20
2019-02-10T04:20:34.796Z,2.30
2019-02-10T04:21:34.780Z,2.10
2019-02-10T04:22:34.795Z,1.90
2019-02-10T04:23:34.762Z,2.00
2019-02-10T04:24:34.770Z,1.90
2019-02-10T04:25:34.761Z,2.00
2019-02-10T04:26:34.728Z,1.80
2019-02-10T04:27:34.769Z,1.90
2019-02-10T04:28:34.700Z,2.00
2019-02-10T04:29:34.699Z,2.00
2019-02-10T04:30:34.704Z,2.20
2019-02-10T04:31:34.676Z,1.90
2019-02-10T04:32:34.750Z,2.00
2019-02-10T04:33:34.649Z,1.90
2019-02-10T04:34:34.668Z,1.90
2019-02-10T04:35:34.660Z,2.10
2019-02-10T04:36:34.618Z,2.10
2019-02-10T04:37:34.683Z,1.70
2019-02-10T04:38:34.607Z,1.90
2019-02-10T04:39:34.610Z,2.00
2019-02-10T04:40:34.592Z,1.80
2019-02-10T04:41:34.570Z,2.00
2019-02-10T04:42:34.576Z,1.60
2019-02-10T04:43:34.545Z,1.80
2019-02-10T04:44:34.577Z,1.70
2019-02-10T04:45:34.529Z,1.70
2019-02-10T04:46:34.559Z,1.70
2019-02-10T04:47:34.596Z,2.10
2019-02-10T04:48:34.490Z,1.70
2019-02-10T04:49:34.490Z,2.10
2019-02-10T04:50:34.468Z,1.90
2019-02-10T04:51:34.525Z,2.10
2019-02-10T04:52:34.450Z,1.70
2019-02-10T04:53:34.480Z,1.70
2019-02-10T04:54:34.422Z,1.70
2019-02-10T04:55:34.564Z,1.80
2019-02-10T04:56:34.404Z,1.50
2019-02-10T04:57:34.393Z,1.80
2019-02-10T04:58:34.439Z,1.60
2019-02-10T04:59:34.455Z,1.50
2019-02-10T05:00:34.366Z,1.70
2019-02-10T05:01:34.362Z,1.50
2019-02-10T05:02:34.373Z,1.60
2019-02-10T05:03:34.378Z,1.90
2019-02-10T05:04:34.316Z,1.60
2019-02-10T05:05:34.392Z,1.70
2019-02-10T05:06:34.387Z,1.70
2019-02-10T05:07:34.286Z,1.90
2019-02-10T05:08:34.314Z,1.60
2019-02-10T05:09:34.278Z,1.60
2019-02-10T05:10:34.257Z,1.40
2019-02-10T05:11:34.261Z,1.30
2019-02-10T05:12:34.305Z,1.40
2019-02-10T05:13:34.221Z,1.40
2019-02-10T05:14:34.248Z,1.50
2019-02-10T05:15:34.207Z,1.70
2019-02-10T05:16:34.191Z,1.50
2019-02-10T05:17:34.183Z,1.40
2019-02-10T05:18:34.206Z,1.50
2019-02-10T05:19:34.187Z,1.50
2019-02-10T05:20:34.158Z,1.50
2019-02-10T05:21:34.283Z,1.60
2019-02-10T05:22:34.129Z,1.60
2019-02-10T05:23:34.119Z,1.40
2019-02-10T05:24:34.150Z,1.60
2019-02-10T05:25:34.156Z,1.20
2019-02-10T05:26:34.118Z,1.60
2019-02-10T05:27:34.217Z,1.70
2019-02-10T05:28:34.066Z,1.20
2019-02-10T05:29:34.123Z,1.50
2019-02-10T05:30:34.053Z,1.30
2019-02-10T05:31:34.063Z,1.40
2019-02-10T05:32:34.017Z,1.50
2019-02-10T05:33:34.021Z,1.50
2019-02-10T05:34:34.049Z,1.40
2019-02-10T05:35:34.037Z,1.60
2019-02-10T05:36:33.985Z,1.30
2019-02-10T05:37:33.975Z,1.70
2019-02-10T05:38:33.965Z,1.30
2019-02-10T05:39:33.983Z,1.30
2019-02-10T05:40:33.939Z,1.40
2019-02-10T05:41:33.990Z,1.60
2019-02-10T05:42:33.912Z,1.20
2019-02-10T05:43:33.922Z,1.40
2019-02-10T05:44:33.962Z,1.20
2019-02-10T05:45:33.901Z,1.40
2019-02-10T05:46:33.905Z,1.50
2019-02-10T05:47:33.879Z,1.40
2019-02-10T05:48:33.891Z,1.20
2019-02-10T05:49:33.869Z,1.20
2019-02-10T05:50:33.856Z,1.30
2019-02-10T05:51:33.838Z,1.20
2019-02-10T05:52:33.812Z,1.30
2019-02-10T05:53:33.807Z,1.10
2019-02-10T05:54:33.830Z,1.20
2019-02-10T05:55:33.824Z,1.30
2019-02-10T05:56:33.808Z,1.20
2019-02-10T05:57:33.797Z,1.20
2019-02-10T05:58:33.749Z,1.30
2019-02-10T05:59:33.737Z,1.40
2019-02-10T06:00:33.761Z,1.40
2019-02-10T06:01:33.712Z,1.40
2019-02-10T06:02:33.793Z,1.30
2019-02-10T06:03:33.777Z,1.40
2019-02-10T06:04:33.681Z,1.10
2019-02-10T06:05:33.679Z,1.30
2019-02-10T06:06:33.733Z,1.20
2019-02-10T06:07:33.646Z,1.20
2019-02-10T06:08:33.644Z,1.40
2019-02-10T06:09:33.694Z,1.20
2019-02-10T06:10:33.617Z,1.20
2019-02-10T06:11:33.630Z,1.50
2019-02-10T06:12:33.769Z,1.20
2019-02-10T06:13:33.610Z,1.40
2019-02-10T06:14:33.605Z,1.20
2019-02-10T06:15:33.621Z,1.30
2019-02-10T06:16:33.583Z,1.10
2019-02-10T06:17:33.565Z,1.30
2019-02-10T06:18:33.548Z,1.10
2019-02-10T06:19:33.534Z,1.40
2019-02-10T06:20:33.513Z,4.30
2019-02-10T06:21:33.538Z,3.70
2019-02-10T06:22:33.493Z,2.10
2019-02-10T06:23:33.483Z,2.40
2019-02-10T06:24:33.467Z,3.50
2019-02-10T06:25:33.513Z,2.40
2019-02-10T06:26:33.487Z,2.40
2019-02-10T06:27:33.473Z,3.20
2019-02-10T06:28:33.437Z,1.90
2019-02-10T06:29:33.429Z,3.00
2019-02-10T06:30:33.404Z,1.80
2019-02-10T06:31:33.396Z,1.70
2019-02-10T06:32:33.407Z,1.50
2019-02-10T06:33:36.399Z,2.90
2019-02-10T06:34:33.369Z,1.90
2019-02-10T06:35:33.377Z,1.30
2019-02-10T06:36:33.345Z,1.70
2019-02-10T06:37:33.502Z,2.10
2019-02-10T06:38:33.319Z,1.80
2019-02-10T06:39:33.310Z,1.70
2019-02-10T06:40:33.307Z,1.30
2019-02-10T06:41:33.306Z,1.50
2019-02-10T06:42:33.314Z,1.20
2019-02-10T06:43:33.263Z,3.10
2019-02-10T06:44:33.273Z,2.10
2019-02-10T06:45:33.238Z,2.10
2019-02-10T06:46:33.229Z,1.80
2019-02-10T06:47:33.258Z,1.50
2019-02-10T06:48:33.230Z,1.50
2019-02-10T06:49:33.208Z,2.10
2019-02-10T06:50:33.237Z,2.70
2019-02-10T06:51:33.178Z,2.30
2019-02-10T06:52:33.255Z,2.20
2019-02-10T06:53:34.763Z,1.70
2019-02-10T06:54:33.190Z,1.60
2019-02-10T06:55:33.150Z,1.10
2019-02-10T06:56:33.142Z,1.20
2019-02-10T06:57:33.135Z,1.00
2019-02-10T06:58:33.177Z,1.50
2019-02-10T06:59:33.181Z,1.20
2019-02-10T07:00:33.129Z,1.40
2019-02-10T07:01:33.156Z,1.10
2019-02-10T07:02:33.102Z,1.00
2019-02-10T07:03:33.048Z,1.40
2019-02-10T07:04:33.041Z,0.80
2019-02-10T07:05:33.056Z,1.00
2019-02-10T07:06:33.021Z,1.30
2019-02-10T07:07:33.037Z,1.00
2019-02-10T07:08:33.073Z,1.10
2019-02-10T07:09:33.003Z,1.40
2019-02-10T07:10:32.979Z,0.90
2019-02-10T07:11:32.963Z,0.70
2019-02-10T07:12:32.960Z,1.00
2019-02-10T07:13:33.014Z,1.10
2019-02-10T07:14:32.972Z,0.90
2019-02-10T07:15:32.924Z,1.30
2019-02-10T07:16:32.934Z,1.50
2019-02-10T07:17:32.901Z,1.60
2019-02-10T07:18:32.975Z,1.00
2019-02-10T07:19:32.882Z,1.20
2019-02-10T07:20:32.892Z,1.00
2019-02-10T07:21:32.899Z,0.90
2019-02-10T07:22:32.853Z,1.20
2019-02-10T07:23:32.893Z,1.20
2019-02-10T07:24:32.823Z,0.90
2019-02-10T07:25:32.825Z,1.00
2019-02-10T07:26:32.801Z,1.20
2019-02-10T07:27:32.799Z,1.30
2019-02-10T07:28:32.839Z,0.90
2019-02-10T07:29:32.912Z,0.90
2019-02-10T07:30:32.792Z,1.00
2019-02-10T07:31:32.755Z,1.10
2019-02-10T07:32:32.744Z,1.00
2019-02-10T07:33:32.756Z,1.00
2019-02-10T07:34:32.778Z,1.10
2019-02-10T07:35:32.705Z,0.80
2019-02-10T07:36:32.710Z,0.70
2019-02-10T07:37:32.691Z,0.90
2019-02-10T07:38:38.452Z,0.70
2019-02-10T07:39:33.701Z,0.70
2019-02-10T07:40:32.670Z,0.90
2019-02-10T07:41:32.639Z,0.80
2019-02-10T07:42:32.678Z,0.80
2019-02-10T07:43:32.628Z,0.80
2019-02-10T07:44:32.647Z,0.90
2019-02-10T07:45:32.699Z,1.10
2019-02-10T07:46:32.589Z,0.80
2019-02-10T07:47:32.586Z,0.80
2019-02-10T07:48:32.648Z,1.00
2019-02-10T07:49:32.560Z,0.80
2019-02-10T07:50:32.559Z,0.90
2019-02-10T07:51:32.559Z,1.10
2019-02-10T07:52:32.612Z,0.90
2019-02-10T07:53:32.530Z,0.80
2019-02-10T07:54:32.504Z,1.00
2019-02-10T07:55:32.506Z,0.80
2019-02-10T07:56:32.519Z,0.70
2019-02-10T07:57:32.499Z,0.90
2019-02-10T07:58:32.465Z,0.80
2019-02-10T07:59:32.539Z,0.80
2019-02-10T08:00:32.450Z,0.70
2019-02-10T08:01:32.464Z,0.70
2019-02-10T08:02:32.414Z,0.70
2019-02-10T08:03:32.449Z,0.80
2019-02-10T08:04:32.411Z,0.80
2019-02-10T08:05:32.410Z,0.80
2019-02-10T08:06:32.383Z,0.80
2019-02-10T08:07:32.426Z,0.80
2019-02-10T08:08:32.377Z,0.80
2019-02-10T08:09:32.381Z,0.70
2019-02-10T08:10:32.330Z,1.00
2019-02-10T08:11:32.402Z,0.80
2019-02-10T08:12:32.538Z,0.80
2019-02-10T08:13:33.192Z,0.80
2019-02-10T08:14:32.310Z,0.90
2019-02-10T08:15:32.321Z,0.80
2019-02-10T08:16:32.266Z,0.90
2019-02-10T08:17:32.312Z,0.80
2019-02-10T08:18:32.300Z,0.90
2019-02-10T08:19:32.244Z,0.80
2019-02-10T08:20:32.232Z,0.90
2019-02-10T08:21:32.218Z,0.90
2019-02-10T08:22:32.275Z,0.80
2019-02-10T08:23:32.212Z,0.80
2019-02-10T08:24:32.188Z,1.20
2019-02-10T08:25:32.183Z,0.90
2019-02-10T08:26:32.229Z,0.90
2019-02-10T08:27:32.237Z,0.80
2019-02-10T08:28:32.172Z,0.90
2019-02-10T08:29:32.171Z,0.80
2019-02-10T08:30:32.134Z,0.60
2019-02-10T08:31:32.117Z,0.70
2019-02-10T08:32:32.100Z,0.80
2019-02-10T08:33:32.380Z,0.90
2019-02-10T08:34:32.083Z,0.70
2019-02-10T08:35:32.709Z,0.70
2019-02-10T08:36:32.061Z,0.70
2019-02-10T08:37:32.064Z,0.80
2019-02-10T08:38:32.102Z,0.60
2019-02-10T08:39:32.042Z,0.80
2019-02-10T08:40:32.027Z,0.70
2019-02-10T08:41:32.036Z,0.80
2019-02-10T08:42:32.001Z,0.70
2019-02-10T08:43:32.033Z,0.90
2019-02-10T08:44:32.037Z,0.70
2019-02-10T08:45:31.968Z,0.70
2019-02-10T08:46:31.976Z,0.70
2019-02-10T08:47:33.674Z,0.70
2019-02-10T08:48:31.972Z,0.70
2019-02-10T08:49:31.950Z,0.70
2019-02-10T08:50:31.908Z,0.80
2019-02-10T08:51:31.897Z,0.80
2019-02-10T08:52:31.949Z,0.70
2019-02-10T08:53:31.882Z,0.70
2019-02-10T08:54:31.884Z,0.60
2019-02-10T08:55:31.875Z,0.70
2019-02-10T08:56:31.852Z,0.70
2019-02-10T08:57:31.840Z,0.60
2019-02-10T08:58:31.823Z,0.90
2019-02-10T08:59:31.838Z,0.90
2019-02-10T09:00:31.798Z,0.60
2019-02-10T09:01:31.805Z,0.60
2019-02-10T09:02:31.829Z,0.70
2019-02-10T09:03:31.806Z,0.70
2019-02-10T09:04:31.788Z,0.70
2019-02-10T09:05:31.746Z,0.80
2019-02-10T09:06:31.765Z,0.60
2019-02-10T09:07:31.768Z,0.70
2019-02-10T09:08:31.728Z,0.60
2019-02-10T09:09:31.814Z,0.70
2019-02-10T09:10:31.692Z,0.60
2019-02-10T09:11:31.683Z,0.70
2019-02-10T09:12:31.673Z,0.70
2019-02-10T09:13:31.667Z,0.70
2019-02-10T09:14:31.740Z,0.60
2019-02-10T09:15:31.656Z,0.60
2019-02-10T09:16:31.647Z,0.60
2019-02-10T09:17:31.639Z,0.60
2019-02-10T09:18:31.645Z,0.70
2019-02-10T09:19:31.675Z,0.60
2019-02-10T09:20:31.628Z,0.50
2019-02-10T09:21:31.579Z,0.50
2019-02-10T09:22:31.616Z,0.50
2019-02-10T09:23:31.561Z,0.70
2019-02-10T09:24:31.599Z,0.60
2019-02-10T09:25:31.562Z,0.60
2019-02-10T09:26:31.555Z,0.60
2019-02-10T09:27:31.565Z,0.70
2019-02-10T09:28:31.508Z,0.60
2019-02-10T09:29:31.492Z,0.70
2019-02-10T09:30:31.482Z,0.60
2019-02-10T09:31:33.182Z,0.40
2019-02-10T09:32:31.550Z,0.50
2019-02-10T09:33:31.484Z,0.70
2019-02-10T09:34:31.448Z,0.50
2019-02-10T09:35:31.455Z,0.60
2019-02-10T09:36:31.463Z,0.50
2019-02-10T09:37:31.721Z,0.60
2019-02-10T09:38:31.516Z,0.60
2019-02-10T09:39:31.411Z,0.60
2019-02-10T09:40:31.408Z,0.60
2019-02-10T09:41:31.387Z,0.80
2019-02-10T09:42:31.441Z,0.60
2019-02-10T09:43:31.338Z,0.50
2019-02-10T09:44:31.346Z,0.70
2019-02-10T09:45:31.547Z,0.70
2019-02-10T09:46:31.329Z,0.50
2019-02-10T09:47:31.341Z,0.70
2019-02-10T09:48:31.352Z,0.60
2019-02-10T09:49:31.307Z,0.60
2019-02-10T09:50:31.270Z,0.60
2019-02-10T09:51:31.255Z,0.60
2019-02-10T09:52:31.288Z,0.50
2019-02-10T09:53:31.378Z,0.60
2019-02-10T09:54:31.257Z,0.70
2019-02-10T09:55:31.254Z,0.60
2019-02-10T09:56:31.204Z,0.70
2019-02-10T09:57:31.305Z,0.70
2019-02-10T09:58:31.188Z,0.80
2019-02-10T09:59:31.175Z,0.60
2019-02-10T10:00:31.189Z,0.70
2019-02-10T10:01:31.156Z,0.60
2019-02-10T10:02:31.283Z,0.80
2019-02-10T10:03:31.127Z,0.80
2019-02-10T10:04:31.231Z,0.90
2019-02-10T10:05:31.120Z,0.70
2019-02-10T10:06:31.132Z,0.80
2019-02-10T10:07:31.084Z,0.90
2019-02-10T10:08:31.112Z,0.70
2019-02-10T10:09:31.498Z,0.80
2019-02-10T10:10:31.108Z,1.00
2019-02-10T10:11:31.062Z,1.20
2019-02-10T10:12:31.064Z,0.70
2019-02-10T10:13:31.152Z,0.80
2019-02-10T10:14:31.216Z,1.10
2019-02-10T10:15:31.016Z,0.70
2019-02-10T10:16:31.209Z,0.70
2019-02-10T10:17:30.980Z,0.90
2019-02-10T10:18:30.966Z,0.60
2019-02-10T10:19:31.059Z,0.60
2019-02-10T10:20:30.950Z,0.60
2019-02-10T10:21:30.938Z,0.60
2019-02-10T10:22:30.957Z,0.40
2019-02-10T10:23:30.960Z,0.90
2019-02-10T10:24:30.970Z,0.70
2019-02-10T10:25:30.922Z,0.60
2019-02-10T10:26:30.881Z,0.60
2019-02-10T10:27:30.877Z,0.70
2019-02-10T10:28:30.876Z,0.70
2019-02-10T10:29:30.897Z,0.60
2019-02-10T10:30:30.894Z,0.60
2019-02-10T10:31:30.831Z,0.70
2019-02-10T10:32:30.841Z,0.60
2019-02-10T10:33:31.994Z,0.60
2019-02-10T10:34:30.836Z,0.70
2019-02-10T10:35:30.919Z,0.70
2019-02-10T10:36:30.796Z,0.70
2019-02-10T10:37:30.778Z,0.70
2019-02-10T10:38:30.759Z,0.60
2019-02-10T10:39:30.794Z,0.50
2019-02-10T10:40:30.769Z,0.60
2019-02-10T10:41:30.724Z,0.70
2019-02-10T10:42:30.924Z,0.70
2019-02-10T10:43:30.697Z,0.60
2019-02-10T10:44:30.692Z,0.60
2019-02-10T10:45:30.751Z,0.60
2019-02-10T10:46:30.771Z,0.50
2019-02-10T10:47:30.747Z,0.70
2019-02-10T10:48:30.642Z,0.60
2019-02-10T10:49:30.675Z,0.60
2019-02-10T10:50:30.729Z,0.70
2019-02-10T10:51:30.633Z,0.50
2019-02-10T10:52:30.636Z,0.60
2019-02-10T10:53:30.590Z,0.70
2019-02-10T10:54:30.603Z,0.60
2019-02-10T10:55:30.642Z,0.60
2019-02-10T10:56:30.566Z,0.80
2019-02-10T10:57:30.573Z,0.80
2019-02-10T10:58:30.640Z,0.70
2019-02-10T10:59:30.540Z,0.70
2019-02-10T11:00:30.515Z,0.90
2019-02-10T11:01:30.548Z,0.80
2019-02-10T11:02:30.513Z,0.80
2019-02-10T11:03:30.505Z,0.80
2019-02-10T11:04:30.517Z,0.80
2019-02-10T11:05:30.484Z,0.70
2019-02-10T11:06:30.522Z,0.90
2019-02-10T11:07:30.535Z,0.70
2019-02-10T11:08:30.453Z,0.60
2019-02-10T11:09:35.417Z,0.90
2019-02-10T11:10:31.405Z,0.70
2019-02-10T11:11:30.399Z,0.80
2019-02-10T11:12:30.420Z,0.90
2019-02-10T11:13:30.375Z,0.90
2019-02-10T11:14:30.369Z,0.70
2019-02-10T11:15:30.361Z,0.70
2019-02-10T11:16:30.398Z,0.80
2019-02-10T11:17:30.365Z,0.60
2019-02-10T11:18:30.321Z,0.60
2019-02-10T11:19:30.336Z,0.80
2019-02-10T11:20:30.345Z,0.80
2019-02-10T11:21:30.339Z,0.70
2019-02-10T11:22:30.355Z,0.90
2019-02-10T11:23:30.265Z,0.90
2019-02-10T11:24:30.363Z,1.20
2019-02-10T11:25:30.248Z,0.90
2019-02-10T11:26:30.269Z,0.70
2019-02-10T11:27:30.370Z,0.90
2019-02-10T11:28:30.249Z,0.60
2019-02-10T11:29:30.212Z,0.70
2019-02-10T11:30:31.114Z,0.60
2019-02-10T11:31:30.192Z,0.80
2019-02-10T11:32:30.214Z,0.80
2019-02-10T11:33:30.254Z,0.70
2019-02-10T11:34:30.143Z,0.80
2019-02-10T11:35:30.236Z,0.70
2019-02-10T11:36:30.141Z,0.70
2019-02-10T11:37:31.156Z,0.70
2019-02-10T11:38:30.137Z,0.80
2019-02-10T11:39:30.091Z,0.70
2019-02-10T11:40:30.105Z,0.70
2019-02-10T11:41:30.070Z,0.70
2019-02-10T11:42:30.149Z,0.80
2019-02-10T11:43:30.067Z,0.90
2019-02-10T11:44:30.062Z,0.60
2019-02-10T11:45:30.044Z,0.70
2019-02-10T11:46:30.016Z,0.60
2019-02-10T11:47:30.024Z,0.50
2019-02-10T11:48:30.037Z,0.70
2019-02-10T11:49:29.985Z,0.60
2019-02-10T11:50:29.994Z,0.60
2019-02-10T11:51:29.956Z,0.60
2019-02-10T11:52:29.946Z,0.70
2019-02-10T11:53:29.981Z,0.70
2019-02-10T11:54:29.945Z,0.60
2019-02-10T11:55:29.915Z,0.60
2019-02-10T11:56:29.911Z,0.70
2019-02-10T11:57:29.891Z,0.60
2019-02-10T11:58:29.984Z,0.60
2019-02-10T11:59:29.878Z,0.70
2019-02-10T12:00:29.886Z,0.60
2019-02-10T12:01:29.936Z,0.60
2019-02-10T12:02:37.596Z,0.60
2019-02-10T12:03:30.912Z,0.70
2019-02-10T12:04:29.821Z,0.60
2019-02-10T12:05:29.813Z,0.80
2019-02-10T12:06:29.858Z,0.60
2019-02-10T12:07:29.785Z,0.80
2019-02-10T12:08:35.731Z,0.60
2019-02-10T12:09:30.927Z,0.60
2019-02-10T12:10:29.921Z,0.50
2019-02-10T12:11:29.746Z,0.70
2019-02-10T12:12:29.732Z,0.70
2019-02-10T12:13:29.869Z,0.70
2019-02-10T12:14:29.796Z,0.60
2019-02-10T12:15:29.707Z,0.70
2019-02-10T12:16:29.760Z,0.60
2019-02-10T12:17:29.716Z,0.60
2019-02-10T12:18:29.706Z,0.60
2019-02-10T12:19:31.383Z,0.60
2019-02-10T12:20:30.362Z,0.70
2019-02-10T12:21:29.761Z,0.70
2019-02-10T12:22:30.449Z,0.60
2019-02-10T12:23:29.613Z,0.60
2019-02-10T12:24:32.526Z,0.50
2019-02-10T12:25:29.604Z,0.50
2019-02-10T12:26:29.658Z,0.50
2019-02-10T12:27:29.586Z,0.40
2019-02-10T12:28:29.557Z,0.30
2019-02-10T12:29:29.594Z,0.40
2019-02-10T12:30:29.602Z,0.40
2019-02-10T12:31:29.546Z,0.40
2019-02-10T12:32:29.567Z,0.30
2019-02-10T12:33:29.511Z,0.40
2019-02-10T12:34:29.550Z,0.30
2019-02-10T12:35:29.677Z,0.40
2019-02-10T12:36:29.471Z,0.20
2019-02-10T12:37:32.472Z,0.30
2019-02-10T12:38:29.458Z,0.30
2019-02-10T12:39:29.447Z,0.30
2019-02-10T12:40:29.468Z,0.40
2019-02-10T12:41:29.515Z,0.20
2019-02-10T12:42:29.457Z,0.30
2019-02-10T12:43:29.393Z,0.30
2019-02-10T12:44:29.387Z,0.30
2019-02-10T12:45:29.445Z,0.30
2019-02-10T12:46:29.364Z,0.40
2019-02-10T12:47:29.358Z,0.30
2019-02-10T12:48:29.366Z,0.40
2019-02-10T12:49:29.328Z,0.30
2019-02-10T12:50:29.375Z,0.30
2019-02-10T12:51:29.329Z,0.30
2019-02-10T12:52:29.305Z,0.40
2019-02-10T12:53:29.301Z,0.30
2019-02-10T12:54:29.324Z,0.30
2019-02-10T12:55:29.302Z,0.40
2019-02-10T12:56:29.253Z,0.30
2019-02-10T12:57:29.247Z,0.40
2019-02-10T12:58:29.245Z,0.40
2019-02-10T12:59:29.221Z,0.40
2019-02-10T13:00:29.222Z,0.30
2019-02-10T13:01:29.227Z,0.50
2019-02-10T13:02:29.196Z,0.50
2019-02-10T13:03:29.220Z,0.30
2019-02-10T13:04:29.168Z,0.40
2019-02-10T13:05:29.155Z,0.40
2019-02-10T13:06:29.238Z,0.30
2019-02-10T13:07:29.136Z,0.40
2019-02-10T13:08:29.126Z,0.40
2019-02-10T13:09:29.159Z,0.40
2019-02-10T13:10:29.104Z,0.40
2019-02-10T13:11:29.117Z,0.30
2019-02-10T13:12:29.081Z,0.50
2019-02-10T13:13:29.074Z,0.30
2019-02-10T13:14:29.097Z,0.30
2019-02-10T13:15:29.186Z,0.40
2019-02-10T13:16:29.077Z,0.30
2019-02-10T13:17:29.031Z,0.30
2019-02-10T13:18:29.017Z,0.30